Laplata, Maryland
Current Conditions -  °F | °C
As of 10:56 AM on Thursday 29 Jan 2015 (Local Time) from KNYG Reporting Station
Broken Clouds Broken Clouds  
Wind Chill: 22°   Ceiling: 16000
Heat Index: 31°   Visibility: 10mi
Dew Point: 16°   Wind: 10mph
Humidity: 54%   Direction: 200°SSW
Pressure: 30.31"   Gusts: NA
Location:  38.5166°N, 76.9981°W
Report Text: KNYG 291556Z 20009KT 10SM BKN160 BKN200 M01/M09 A3031 RMK AO2 SLP264 T10061089 $
Loading
Personal Weather Stations






























Interactive Weather Map New forecast layout! Learn more

10-Day Weather Forecast

Advertisements
Track Severe Weather on mobile